Airfield :
LOGIN :

Register | Disclaimer

   EN    FR    IT 

 










Legend :    VFR   Marginal VFR   IFR   Intensive IFR   Very Intensive IFR
Visi :
Ceiling :
>= 8 km
>= 3000ft
5 to 8 km
1000 to 3000 ft
1500m to 5 km
500 to 1000 ft
800 to 1500m
200 to 500 ft
< 800m
< 200 ft
Symbols :   Thunderstorms  Fog  Heavy snow  Heavy precipitations  Wind > 20 kt
SIGMETs :     Misc.  Thunderstorms  Icing  Turbulence  Mountain Waves  Volcanic Ashes






- Airport Elevation : 3 ft
- IATA code : DHR


EHKD - Den Helder De Kooy

CURRENT METAR :
  • 300955Z AUTO 19011KT 160V220 9999 NCD 15/10 Q1008 BLU TEMPO SCT020

EXPIRED METARs :
  • 300925Z AUTO 18010KT 9999 NCD 15/10 Q1007 BLU NOSIG
  • 300855Z AUTO 18009KT 150V210 9999 NCD 15/10 Q1008 BLU NOSIG
  • 300825Z AUTO 18008KT 150V210 9999 NCD 14/11 Q1008 BLU NOSIG
  • 300755Z AUTO 18008KT 150V220 9999 NCD 12/10 Q1008 BLU NOSIG
  • 300725Z AUTO 17006KT 140V200 9999 NCD 11/09 Q1008 BLU NOSIG

TAF TAF EHKD
Valid from the 30 at 09:00 until the 30 at 21:00 UTC


300807Z 3009/3021 18007KT CAVOK
BECMG 3009/3011 21012KT
PROB30
TEMPO 3009/3012 FEW015 SCT018CB
BECMG 3011/3013 21020G32KT
BECMG 3020/3021 18023G40KT 4500 RA SCT018 OVC048



MET'MAP, your aeronautical weather chart ! - Copyright ORBIFLY December 2007 - Disclaimer

ORBIFLY MET'MAP TEAM :

Programming & Development : Alexandra Zaïnal
Original concept : Baudouin d'Aumeries
Technical & hardware support : Manuel Goepfert
Assistance : Marc-Olivier Méhu




SOURCES & CREDITS :

   NOAA